Brisbane International Airport
YBBN : now visible

Airfield :











YOU CAN JOIN US ON...

 
LOGIN :

Register | Disclaimer

   EN    FR    IT 

 









Legend :    VFR   Marginal VFR   IFR   Intensive IFR   Very Intensive IFR
Visi :
Ceiling :
>= 8 km
>= 3000ft
5 to 8 km
1000 to 3000 ft
1500m to 5 km
500 to 1000 ft
800 to 1500m
200 to 500 ft
< 800m
< 200 ft
Symbols :   Thunderstorms  Fog  Heavy snow  Heavy precipitations  Wind > 20 kt






- Airport Elevation : 13 ft
- IATA code : BNE


YBBN - Brisbane International

CURRENT METAR :
  • 251830Z 21008KT 9999 FEW025 15/14 Q1016

EXPIRED METARs :
  • 251800Z 21007KT 9999 FEW025 SCT040 16/14 Q1016
  • 251730Z 22006KT 9999 FEW020 BKN040 16/15 Q1017
  • 251630Z 20007KT 9999 FEW027 SCT170 17/15 Q1017
  • 251600Z 20006KT 9999 FEW030 SCT170 17/15 Q1017

TAF TAF YBBN
Valid from the 25 at 18:00 until the 27 at 00:00 UTC


251652Z 2518/2700 21007KT 9999 -SHRA FEW012 SCT025
FM260100 13012KT 9999 -SHRA SCT030
FM260800 21007KT 9999 -SHRA FEW012 SCT025 INTER 2518/2522 4000 SHRA BKN014 INTER 2603/2612 3000 SHRA BKN012
YBBB FIR / Oceania



MET'MAP, your aeronautical weather chart ! - Copyright ORBIFLY December 2007 - Disclaimer

ORBIFLY MET'MAP TEAM :

Programming & Development : Alexandra Zaïnal
Original concept : Baudouin d'Aumeries
Technical & hardware support : Manuel Goepfert
Assistance : Marc-Olivier Méhu

Contact : metmap@orbifly.com




SOURCES & CREDITS :

   NOAA       Earth
Advisory